Flight Track Log - Related Links

Times and Time Zones

All times are in EST time to prevent confusion due to time zone crossing. See the ABX1817 flight status page for this flight to view local times or setup timezone preferences in your user account.

Time Position Orientation Groundspeed Altitude Reporting Facility
EST Latitude Longitude Course Direction KTS MPH feet Rate Location/Type
Fri 11:27:44 PM 47.5144 -122.2897 154° Southeast 147 169 1,400  Level Seattle Center
Fri 11:27:57 PM 47.5050 -122.2828 154° Southeast 148 170 1,900 2,000 Climbing Seattle Center
Fri 11:28:26 PM 47.4842 -122.2669 153° Southeast 176 203 2,800 2,164 Climbing Seattle Center
Fri 11:28:58 PM 47.4581 -122.2461 152° Southeast 191 220 4,100 2,164 Climbing Seattle Center
Fri 11:29:27 PM 47.4283 -122.2225 152° Southeast 265 305 5,000 2,262 Climbing Seattle Center
Fri 11:29:59 PM 47.3919 -122.1922 151° Southeast 269 310 6,400 2,935 Climbing Seattle Center
Fri 11:30:59 PM 47.3153 -122.1400 155° Southeast 304 350 9,500 2,727 Climbing Seattle Center
Fri 11:32:00 PM 47.2250 -122.1222 172° South 331 381 11,900 2,902 Climbing Seattle Center
Fri 11:33:01 PM 47.1203 -122.0972 171° South 380 437 15,400 3,322 Climbing Seattle Center
Fri 11:34:01 PM 47.0169 -122.0747 172° South 393 452 18,600 3,174 Climbing Seattle Center
Fri 11:35:02 PM 46.9022 -122.0511 172° South 409 471 21,800 3,049 Climbing Seattle Center
Fri 11:36:03 PM 46.7839 -122.0222 171° South 426 490 24,800 2,777 Climbing Seattle Center
Fri 11:37:03 PM 46.6592 -121.9972 172° South 447 514 27,400 2,281 Climbing Seattle Center
Fri 11:38:04 PM 46.5292 -121.9558 168° South 473 544 29,400 1,820 Climbing Seattle Center
Fri 11:39:05 PM 46.3950 -121.9014 164° South 497 572 31,100 2,083 Climbing Seattle Center
Fri 11:40:05 PM 46.2558 -121.8489 165° South 513 590 33,600 2,628 Climbing Seattle Center
Fri 11:41:06 PM 46.1058 -121.7914 165° South 514 592 36,400 1,672 Climbing Seattle Center
Fri 11:42:07 PM 45.9761 -121.7419 165° South 488 562 37,000 298 Climbing Seattle Center
Fri 11:43:07 PM 45.8433 -121.6917 165° South 493 567 37,000  Level Seattle Center
Fri 11:44:08 PM 45.7083 -121.6408 165° South 501 577 37,000  Level Seattle Center
Fri 11:45:09 PM 45.5728 -121.5928 166° South 503 579 37,000  Level Seattle Center
Fri 11:46:10 PM 45.4369 -121.5414 165° South 506 582 37,000  Level Seattle Center
Fri 11:47:10 PM 45.3017 -121.4908 165° South 505 581 37,000  Level Seattle Center
Fri 11:48:11 PM 45.1394 -121.4306 165° South 505 581 37,000  Level Seattle Center
Fri 11:49:12 PM 45.0044 -121.3803 165° South 505 581 37,000  Level Seattle Center
Fri 11:50:13 PM 44.8722 -121.3319 165° South 511 588 37,000  Level Seattle Center
Fri 11:51:13 PM 44.7342 -121.2814 165° South 512 589 37,000  Level Seattle Center
Fri 11:52:14 PM 44.5953 -121.2319 166° South 514 592 37,000  Level Seattle Center
Fri 11:53:15 PM 44.4567 -121.1819 166° South 513 590 37,000  Level Seattle Center
Fri 11:54:16 PM 44.3167 -121.1319 166° South 514 592 37,000  Level Seattle Center
Fri 11:55:16 PM 44.1772 -121.0808 165° South 518 596 37,000  Level Seattle Center
Fri 11:56:17 PM 44.0378 -121.0344 167° South 518 596 37,000 -295 Level Seattle Center
Fri 11:57:18 PM 43.8981 -120.9842 165° South 520 598 36,400 -689 Descending Seattle Center
Fri 11:58:19 PM 43.7614 -120.9367 166° South 513 590 35,600 -694 Descending Seattle Center
Fri 11:59:19 PM 43.6275 -120.8903 166° South 500 575 35,000 -298 Descending Seattle Center
Sat 12:00:20 AM 43.4867 -120.8442 167° South 477 549 35,000  Level Seattle Center
Sat 12:01:21 AM 43.3586 -120.8017 166° South 475 547 35,000  Level Seattle Center
Sat 12:02:22 AM 43.2264 -120.7556 166° South 487 560 35,000  Level Seattle Center
Sat 12:03:22 AM 43.0925 -120.7100 166° South 493 567 35,000  Level Seattle Center
Sat 12:04:23 AM 42.9583 -120.6806 171° South 492 566 35,000  Level Seattle Center
Sat 12:05:24 AM 42.8222 -120.6525 171° South 494 568 35,000  Level Seattle Center
Sat 12:06:25 AM 42.6886 -120.6281 172° South 486 559 35,000  Level Seattle Center
Sat 12:07:26 AM 42.5519 -120.5997 171° South 492 566 35,000  Level Seattle Center
Sat 12:08:26 AM 42.4153 -120.5722 172° South 495 570 35,000  Level Seattle Center
Sat 12:09:27 AM 42.2775 -120.5444 172° South 498 573 35,000  Level Seattle Center
Sat 12:10:28 AM 42.1139 -120.5128 172° South 494 568 35,000  Level Seattle Center
Sat 12:11:29 AM 41.9814 -120.4864 172° South 485 558 35,000  Level Seattle Center
Sat 12:12:29 AM 41.8464 -120.4617 172° South 487 560 35,000  Level Seattle Center
Sat 12:13:30 AM 41.7144 -120.4350 171° South 481 554 35,000  Level Seattle Center
Sat 12:14:31 AM 41.5853 -120.4081 171° South 471 542 35,000  Level Seattle Center
Sat 12:15:32 AM 41.4528 -120.3825 172° South 478 550 35,000  Level Seattle Center
Sat 12:16:33 AM 41.3192 -120.3581 172° South 483 556 35,000  Level Seattle Center
Sat 12:17:33 AM 41.1867 -120.3319 172° South 480 552 35,000  Level Seattle Center
Sat 12:18:34 AM 41.0542 -120.3081 172° South 480 552 35,000  Level Seattle Center
Sat 12:19:05 AM 40.9783 -120.2897 170° South 479 551 35,000  Level Oakland Center
Sat 12:20:06 AM 40.8472 -120.2653 172° South 477 549 35,000  Level Oakland Center
Sat 12:21:07 AM 40.7117 -120.2428 173° South 486 559 35,000  Level Oakland Center
Sat 12:22:08 AM 40.5786 -120.2197 173° South 484 557 35,000  Level Oakland Center
Sat 12:23:09 AM 40.4381 -120.1903 171° South 477 549 35,000  Level Oakland Center
Sat 12:24:10 AM 40.3064 -120.1669 172° South 477 549 35,000  Level Oakland Center
Sat 12:25:11 AM 40.1758 -120.1422 172° South 475 547 35,000  Level Oakland Center
Sat 12:26:12 AM 40.0436 -120.1186 172° South 479 551 35,000  Level Oakland Center
Sat 12:27:13 AM 39.9117 -120.0917 171° South 481 554 35,000  Level Oakland Center
Sat 12:28:14 AM 39.7797 -120.0661 172° South 482 555 35,000  Level Oakland Center
Sat 12:29:15 AM 39.6486 -120.0428 172° South 478 550 35,000  Level Oakland Center
Sat 12:30:16 AM 39.5189 -120.0181 172° South 475 547 35,000  Level Oakland Center
Sat 12:31:17 AM 39.3900 -119.9944 172° South 472 543 35,000  Level Oakland Center
Sat 12:32:18 AM 39.2611 -119.9708 172° South 468 539 35,000  Level Oakland Center
Sat 12:33:19 AM 39.1342 -119.9483 172° South 465 535 35,000  Level Oakland Center
Sat 12:34:20 AM 38.9844 -119.9225 172° South 456 525 35,000  Level Oakland Center
Sat 12:35:21 AM 38.8717 -119.9022 172° South 452 520 35,000  Level Oakland Center
Sat 12:36:22 AM 38.7483 -119.8811 172° South 447 514 35,000  Level Oakland Center
Sat 12:37:23 AM 38.6256 -119.8594 172° South 445 512 35,000  Level Oakland Center
Sat 12:38:24 AM 38.5053 -119.8383 172° South 437 503 35,000  Level Oakland Center
Sat 12:39:25 AM 38.3856 -119.8175 172° South 433 498 35,000  Level Oakland Center
Sat 12:40:26 AM 38.2631 -119.7969 172° South 439 505 35,000  Level Oakland Center
Sat 12:41:26 AM 38.1444 -119.7761 172° South 433 498 35,000  Level Oakland Center
Sat 12:42:27 AM 38.0261 -119.7547 172° South 429 494 35,000  Level Oakland Center
Sat 12:43:28 AM 37.8800 -119.7300 172° South 437 503 35,000  Level Oakland Center
Sat 12:44:29 AM 37.7597 -119.7089 172° South 436 502 35,000  Level Oakland Center
Sat 12:45:30 AM 37.6394 -119.6894 173° South 434 499 35,000  Level Oakland Center
Sat 12:46:31 AM 37.5197 -119.6678 172° South 435 501 35,000  Level Oakland Center
Sat 12:47:32 AM 37.3992 -119.6467 172° South 435 501 35,000  Level Oakland Center
Sat 12:48:33 AM 37.2917 -119.6269 172° South 434 499 35,000  Level Oakland Center
Sat 12:49:33 AM 37.1708 -119.6072 173° South 436 502 35,000  Level Oakland Center
Sat 12:50:34 AM 37.0492 -119.5931 175° South 437 503 35,000  Level Oakland Center
Sat 12:51:35 AM 36.9292 -119.5986 182° South 433 498 35,000 -49 Level Oakland Center
Sat 12:52:36 AM 36.7828 -119.6003 181° South 437 503 34,900 -50 Descending Oakland Center
Sat 12:53:36 AM 36.6611 -119.6031 181° South 437 503 34,900 50 Level Oakland Center
Sat 12:54:37 AM 36.5397 -119.6044 181° South 437 503 35,000 49 Climbing Oakland Center
Sat 12:55:38 AM 36.4164 -119.6061 181° South 440 506 35,000  Level Oakland Center
Sat 12:56:39 AM 36.2933 -119.6089 181° South 441 507 35,000  Level Oakland Center
Sat 12:57:39 AM 36.1694 -119.6097 180° South 443 510 35,000  Level Oakland Center
Sat 12:58:40 AM 36.0447 -119.6131 181° South 446 513 35,000  Level Oakland Center
Sat 12:59:41 AM 35.9208 -119.6169 181° South 445 512 35,000  Level Oakland Center
Sat 01:00:42 AM 35.7967 -119.6225 182° South 445 512 35,000  Level Oakland Center
Sat 01:01:43 AM 35.6725 -119.6264 181° South 444 511 35,000  Level Oakland Center
Sat 01:02:17 AM 35.5983 -119.6289 182° South 443 510 35,000  Level Los Angeles Center
Sat 01:03:19 AM 35.4728 -119.6336 182° South 446 513 35,000  Level Los Angeles Center
Sat 01:04:20 AM 35.3472 -119.6378 182° South 448 516 35,000 -49 Level Los Angeles Center
Sat 01:05:21 AM 35.2214 -119.6078 169° South 469 540 34,900  Descending Los Angeles Center
Sat 01:06:22 AM 35.1097 -119.5144 146° Southeast 484 557 35,000  Climbing Los Angeles Center
Sat 01:07:23 AM 34.9994 -119.4200 145° Southeast 484 557 34,900 -1,033 Descending Los Angeles Center
Sat 01:08:24 AM 34.8883 -119.3256 145° Southeast 485 558 32,900 -2,732 Descending Los Angeles Center
Sat 01:09:26 AM 34.7811 -119.2356 145° Southeast 475 547 29,300 -3,512 Descending Los Angeles Center
Sat 01:10:27 AM 34.6561 -119.1306 145° Southeast 459 528 25,700 -3,098 Descending Los Angeles Center
Sat 01:11:28 AM 34.5619 -119.0500 145° Southeast 445 512 23,000 -2,754 Descending Los Angeles Center
Sat 01:12:29 AM 34.4675 -118.9703 145° Southeast 414 476 20,100 -2,732 Descending Los Angeles Center
Sat 01:13:31 AM 34.3783 -118.8969 146° Southeast 390 449 17,400 -2,585 Descending Los Angeles Center
Sat 01:14:32 AM 34.2853 -118.8536 159° South 358 412 14,800 -2,508 Descending Los Angeles Center
Sat 01:15:33 AM 34.1933 -118.8203 163° South 346 398 12,300 -1,721 Descending Los Angeles Center
Sat 01:16:34 AM 34.1047 -118.7878 163° South 335 386 11,300 -984 Descending Los Angeles Center
Sat 01:17:35 AM 34.0331 -118.6992 134° Southeast 335 386 10,300 -976 Descending Los Angeles Center
Sat 01:18:37 AM 34.0247 -118.6044 96° East 287 330 9,300 -1,317 Descending Los Angeles Center
Sat 01:19:38 AM 34.0161 -118.5128 96° East 276 318 7,600 -1,869 Descending Los Angeles Center
Sat 01:20:39 AM 34.0150 -118.4239 91° East 266 306 5,500 -2,066 Descending Los Angeles Center
Sat 01:21:40 AM 34.0253 -118.3356 82° East 265 305 3,400 -1,623 Descending Los Angeles Center
Sat 01:22:41 AM 34.0178 -118.2581 97° East 251 289 2,200 -590 Descending Los Angeles Center
Sat 01:23:42 AM 33.9817 -118.2350 152° Southeast 212 244 2,200 -146 Level Los Angeles Center
Sat 01:24:44 AM 33.9528 -118.2689 224° Southwest 170 196 1,900 -439 Descending Los Angeles Center
Sat 01:25:45 AM 33.9450 -118.3094 257° West 143 165 1,300 -639 Descending Los Angeles Center
Sat 01:26:46 AM 33.9414 -118.3517 264° West 133 153 600 -541 Descending Los Angeles Center
Sat 01:27:47 AM 33.9372 -118.3992 264° West 130 150 200 -393 Descending Los Angeles Center
Sat 01:29:00 AM 33.9333 -118.4000 228° Southwest  Level FlightAware Approximate
Sat 01:36:00 AM 33.9425 -118.4081 228° Southwest  Level Estimated

Login

Don't have an account? Register now (free) for customized features, flight alerts, and more!